Time;durP1;ratioP1;P1;durP2;ratioP2;P2;SDS_P1;SDS_P2;PMS_P1;PMS_P2;Temp;Humidity;BMP_temperature;BMP_pressure;BME280_temperature;BME280_humidity;BME280_pressure;Samples;Min_cycle;Max_cycle;Signal;HPM_P1;HPM_P2
2024/01/06 00:00:10;;;;;;;;;12.33;10.00;;;;;8.47;70.95;100461.91;4977371;28;45309;-46
2024/01/06 00:02:36;;;;;;;;;13.00;9.00;;;;;8.46;71.77;100467.34;4978216;28;45288;-49
2024/01/06 00:05:01;;;;;;;;;12.67;12.00;;;;;8.45;71.77;100466.50;4978057;28;45404;-49
2024/01/06 00:07:26;;;;;;;;;11.33;10.00;;;;;8.42;71.25;100458.81;4978244;28;45508;-47
2024/01/06 00:09:52;;;;;;;;;8.33;8.33;;;;;8.36;71.33;100455.88;4977708;28;46296;-47
2024/01/06 00:12:18;;;;;;;;;7.67;5.00;;;;;8.37;72.14;100458.41;4977762;28;45403;-49
2024/01/06 00:14:45;;;;;;;;;17.33;12.00;;;;;8.40;72.28;100465.25;4977745;28;45196;-47
2024/01/06 00:17:11;;;;;;;;;12.67;10.00;;;;;8.39;71.20;100466.25;4978174;28;45265;-49
2024/01/06 00:19:36;;;;;;;;;13.00;10.00;;;;;8.39;72.19;100461.78;4977407;28;46387;-47
2024/01/06 00:22:01;;;;;;;;;6.00;6.00;;;;;8.43;72.14;100457.03;4977652;28;45556;-49
2024/01/06 00:24:27;;;;;;;;;14.67;13.00;;;;;8.47;71.88;100464.56;4977748;28;45309;-50
2024/01/06 00:26:52;;;;;;;;;12.33;8.33;;;;;8.43;71.48;100452.56;4977947;28;45433;-49
2024/01/06 00:29:18;;;;;;;;;11.33;9.33;;;;;8.52;71.02;100460.66;4977593;28;45397;-47
2024/01/06 00:31:43;;;;;;;;;9.33;9.00;;;;;8.61;71.70;100470.41;4977587;28;45374;-48
2024/01/06 00:34:08;;;;;;;;;17.33;12.00;;;;;8.62;71.05;100469.44;4977542;28;45389;-45
2024/01/06 00:36:34;;;;;;;;;11.00;9.00;;;;;8.68;71.86;100468.84;4977725;28;45408;-47
2024/01/06 00:38:59;;;;;;;;;15.00;9.00;;;;;8.65;71.59;100467.34;4977107;28;45453;-49
2024/01/06 00:41:25;;;;;;;;;7.00;7.00;;;;;8.75;70.73;100478.75;4977169;28;45473;-50
2024/01/06 00:43:50;;;;;;;;;11.33;9.00;;;;;8.78;70.70;100495.38;4977334;28;45443;-49
2024/01/06 00:46:16;;;;;;;;;10.67;9.67;;;;;8.80;70.39;100480.16;4977912;28;45382;-47
2024/01/06 00:48:41;;;;;;;;;14.67;10.00;;;;;8.82;70.19;100473.75;4977311;28;47342;-47
2024/01/06 00:51:07;;;;;;;;;10.67;7.67;;;;;8.85;70.60;100480.56;4976035;28;45419;-46
2024/01/06 00:53:32;;;;;;;;;12.33;11.00;;;;;8.87;70.99;100489.22;4977413;28;45366;-47
2024/01/06 00:55:57;;;;;;;;;12.33;9.00;;;;;8.84;70.80;100476.25;4977311;28;45355;-45
2024/01/06 00:58:23;;;;;;;;;11.00;7.00;;;;;8.88;70.71;100483.78;4976326;28;47034;-47
2024/01/06 01:00:48;;;;;;;;;5.67;5.67;;;;;8.90;70.85;100489.78;4977182;28;45393;-49
2024/01/06 01:03:13;;;;;;;;;10.33;9.33;;;;;8.91;70.60;100493.28;4977471;28;45318;-49
2024/01/06 01:05:39;;;;;;;;;6.00;6.00;;;;;8.94;70.96;100491.19;4977464;28;45331;-47
2024/01/06 01:08:05;;;;;;;;;17.00;13.67;;;;;8.97;70.38;100498.00;4976726;28;46220;-48
2024/01/06 01:10:30;;;;;;;;;10.33;8.33;;;;;8.96;70.81;100497.16;4977190;28;45267;-48
2024/01/06 01:12:55;;;;;;;;;10.00;8.33;;;;;8.99;70.17;100493.41;4977109;28;45347;-48
2024/01/06 01:15:21;;;;;;;;;10.33;9.33;;;;;8.97;70.11;100504.16;4977150;28;45468;-48
2024/01/06 01:17:46;;;;;;;;;13.00;10.33;;;;;8.97;69.88;100498.00;4976853;28;45917;-45
2024/01/06 01:20:11;;;;;;;;;11.67;6.00;;;;;8.94;70.38;100493.84;4976758;28;45486;-46
2024/01/06 01:22:36;;;;;;;;;9.33;9.33;;;;;8.90;69.85;100492.44;4977131;28;45311;-44
2024/01/06 01:25:07;;;;;;;;;19.33;12.33;;;;;8.89;70.12;100495.22;4977358;28;45365;-47
2024/01/06 01:27:32;;;;;;;;;16.67;13.00;;;;;8.83;70.92;100493.16;4976743;28;47210;-45
2024/01/06 01:29:58;;;;;;;;;14.00;14.00;;;;;8.74;70.68;100498.31;4976879;28;45314;-46
2024/01/06 01:32:23;;;;;;;;;16.33;14.00;;;;;8.71;70.79;100503.06;4976903;28;45243;-49
2024/01/06 01:34:48;;;;;;;;;15.67;14.00;;;;;8.62;70.51;100499.44;4977118;28;45328;-48
2024/01/06 01:37:14;;;;;;;;;19.33;15.67;;;;;8.49;70.65;100486.47;4976577;28;45489;-48
2024/01/06 01:39:40;;;;;;;;;10.67;10.00;;;;;8.57;71.48;100503.50;4976294;28;45220;-48
2024/01/06 01:42:05;;;;;;;;;9.00;9.00;;;;;8.52;71.01;100514.50;4976687;28;45505;-48
2024/01/06 01:44:31;;;;;;;;;11.00;10.33;;;;;8.44;71.01;100517.03;4976808;28;45437;-47
2024/01/06 01:46:56;;;;;;;;;13.00;9.33;;;;;8.41;71.35;100509.34;4976337;28;46918;-47
2024/01/06 01:49:22;;;;;;;;;11.00;9.67;;;;;8.30;71.88;100504.13;4976509;28;45329;-44
2024/01/06 01:51:49;;;;;;;;;9.33;9.33;;;;;8.26;71.71;100503.59;4976509;28;45363;-45
2024/01/06 01:54:15;;;;;;;;;12.33;10.33;;;;;8.25;71.73;100517.78;4976805;28;45537;-49
2024/01/06 01:56:42;;;;;;;;;9.67;9.67;;;;;8.15;71.68;100509.00;4975089;28;45537;-45
2024/01/06 01:59:12;;;;;;;;;13.00;11.00;;;;;8.18;72.32;100521.97;4976414;28;46099;-47
2024/01/06 02:01:39;;;;;;;;;12.00;10.33;;;;;8.21;72.72;100525.16;4976369;28;45447;-47
2024/01/06 02:04:04;;;;;;;;;13.00;10.00;;;;;8.17;73.10;100531.72;4976432;28;45335;-48
2024/01/06 02:06:29;;;;;;;;;9.00;9.00;;;;;8.14;71.97;100532.00;4976323;28;46428;-45
2024/01/06 02:08:55;;;;;;;;;12.00;8.33;;;;;8.13;72.27;100538.28;4977670;28;45537;-49
2024/01/06 02:11:20;;;;;;;;;10.00;10.00;;;;;8.11;72.87;100536.75;4978050;28;45453;-45
2024/01/06 02:13:46;;;;;;;;;11.00;9.00;;;;;8.07;72.56;100535.34;4980101;28;45292;-47
2024/01/06 02:16:11;;;;;;;;;10.00;10.00;;;;;8.03;72.41;100537.41;4979621;28;46263;-47
2024/01/06 02:18:36;;;;;;;;;11.33;10.00;;;;;8.04;72.86;100544.38;4979820;28;45338;-49
2024/01/06 02:21:02;;;;;;;;;8.00;7.67;;;;;7.91;73.27;100531.38;4979753;28;45373;-45
2024/01/06 02:23:28;;;;;;;;;17.00;9.67;;;;;7.98;73.40;100539.63;4979772;28;45450;-46
2024/01/06 02:25:54;;;;;;;;;12.00;9.67;;;;;7.97;72.86;100553.84;4979473;28;45545;-47
2024/01/06 02:28:19;;;;;;;;;13.00;10.33;;;;;7.95;72.73;100547.84;4979333;28;45200;-45
2024/01/06 02:30:44;;;;;;;;;14.00;10.00;;;;;7.82;73.65;100536.66;4979676;28;45255;-49
2024/01/06 02:33:10;;;;;;;;;12.33;10.00;;;;;7.93;73.13;100548.00;4979559;28;45388;-49
2024/01/06 02:35:35;;;;;;;;;13.33;10.67;;;;;7.78;72.96;100522.00;4979203;28;46036;-47
2024/01/06 02:38:01;;;;;;;;;11.00;10.00;;;;;7.95;73.43;100558.44;4979195;28;45442;-47
2024/01/06 02:40:27;;;;;;;;;10.67;9.67;;;;;7.96;73.65;100560.97;4979326;28;45271;-49
2024/01/06 02:42:52;;;;;;;;;13.00;13.00;;;;;7.97;74.08;100556.50;4979572;28;45369;-46
2024/01/06 02:45:17;;;;;;;;;12.00;12.00;;;;;8.06;73.48;100565.47;4979054;28;47953;-47
2024/01/06 02:47:43;;;;;;;;;17.67;12.33;;;;;8.12;73.20;100564.91;4979223;28;45425;-49
2024/01/06 02:50:08;;;;;;;;;14.33;10.67;;;;;8.14;73.32;100566.47;4979152;28;45362;-48
2024/01/06 02:52:33;;;;;;;;;13.33;11.67;;;;;8.20;73.43;100559.75;4979812;28;45541;-47
2024/01/06 02:55:00;;;;;;;;;11.00;11.00;;;;;8.26;73.17;100575.13;4979149;28;45330;-47
2024/01/06 02:57:25;;;;;;;;;10.33;10.00;;;;;8.30;72.60;100573.03;4979145;28;45453;-48
2024/01/06 02:59:51;;;;;;;;;14.33;11.33;;;;;8.32;72.68;100571.94;4979124;28;45409;-46
2024/01/06 03:02:17;;;;;;;;;21.00;12.67;;;;;8.35;72.46;100579.63;4979264;28;45310;-49
2024/01/06 03:04:42;;;;;;;;;17.00;9.67;;;;;8.36;72.76;100578.63;4978805;28;46233;-47
2024/01/06 03:07:07;;;;;;;;;11.33;9.00;;;;;8.38;72.83;100589.97;4978887;28;45303;-49
2024/01/06 03:09:33;;;;;;;;;8.67;5.67;;;;;8.38;71.91;100587.31;4978722;28;45450;-46
2024/01/06 03:11:58;;;;;;;;;13.67;12.67;;;;;8.40;72.63;100590.69;4979145;28;45324;-47
2024/01/06 03:14:23;;;;;;;;;10.33;10.33;;;;;8.40;72.55;100585.38;4978726;28;46361;-47
2024/01/06 03:16:48;;;;;;;;;14.67;10.33;;;;;8.40;72.25;100595.16;4978704;28;45369;-49
2024/01/06 03:19:14;;;;;;;;;13.33;11.67;;;;;8.40;72.62;100589.84;4978733;28;45381;-49
2024/01/06 03:21:39;;;;;;;;;18.00;12.33;;;;;8.40;73.08;100595.16;4978232;28;45398;-47
2024/01/06 03:24:07;;;;;;;;;13.33;13.33;;;;;8.39;72.16;100598.78;4978647;28;46375;-47
2024/01/06 03:26:32;;;;;;;;;11.33;10.00;;;;;8.39;72.43;100596.97;4978849;28;45339;-45
2024/01/06 03:28:59;;;;;;;;;17.00;14.33;;;;;8.40;72.07;100593.31;4978657;28;45374;-49
2024/01/06 03:31:24;;;;;;;;;19.33;12.00;;;;;8.36;72.89;100586.59;4978880;28;45434;-49
2024/01/06 03:33:50;;;;;;;;;12.67;11.00;;;;;8.43;72.54;100600.19;4978132;28;46120;-46
2024/01/06 03:36:16;;;;;;;;;18.33;11.33;;;;;8.40;72.65;100595.16;4978383;28;45485;-47
2024/01/06 03:38:43;;;;;;;;;13.67;12.00;;;;;8.46;72.71;100602.53;4978296;28;45369;-44
2024/01/06 03:41:08;;;;;;;;;14.33;10.00;;;;;8.30;72.67;100581.84;4978488;28;45884;-45
2024/01/06 03:43:33;;;;;;;;;17.33;13.00;;;;;8.43;72.51;100608.13;4978374;28;46023;-48
2024/01/06 03:46:00;;;;;;;;;12.33;10.00;;;;;8.46;72.32;100608.66;4978298;28;45373;-49
2024/01/06 03:48:25;;;;;;;;;13.00;13.00;;;;;8.47;72.35;100618.31;4978324;28;45389;-46
2024/01/06 03:50:51;;;;;;;;;12.33;12.33;;;;;8.40;72.45;100598.63;4978560;28;45334;-45
2024/01/06 03:53:16;;;;;;;;;14.00;10.00;;;;;8.42;72.33;100599.31;4977882;28;47226;-48
2024/01/06 03:55:41;;;;;;;;;14.33;13.33;;;;;8.44;71.70;100607.97;4978207;28;45383;-48
2024/01/06 03:58:07;;;;;;;;;12.67;12.33;;;;;8.47;71.75;100623.63;4978231;28;45296;-48
2024/01/06 04:00:32;;;;;;;;;18.67;11.33;;;;;8.45;71.96;100614.13;4978633;28;45293;-45
2024/01/06 04:02:57;;;;;;;;;16.67;13.67;;;;;8.45;72.62;100616.78;4978019;28;45531;-47
2024/01/06 04:05:23;;;;;;;;;12.67;10.33;;;;;8.47;72.53;100628.09;4977962;28;45513;-48
2024/01/06 04:07:48;;;;;;;;;14.67;11.00;;;;;8.44;71.71;100609.81;4978082;28;45472;-48
2024/01/06 04:10:14;;;;;;;;;12.67;11.33;;;;;8.43;72.52;100618.75;4978068;28;45531;-47
2024/01/06 04:12:39;;;;;;;;;9.33;9.33;;;;;8.44;72.17;100618.59;4978018;28;45980;-47
2024/01/06 04:15:05;;;;;;;;;15.00;11.00;;;;;8.42;71.94;100617.88;4977892;28;45283;-48
2024/01/06 04:17:30;;;;;;;;;15.00;13.00;;;;;8.44;72.60;100631.00;4978203;28;45381;-45
2024/01/06 04:19:56;;;;;;;;;14.33;13.33;;;;;8.45;72.43;100624.72;4977981;28;45449;-45
2024/01/06 04:22:21;;;;;;;;;13.00;12.00;;;;;8.44;71.89;100628.34;4977701;28;45954;-48
2024/01/06 04:24:47;;;;;;;;;15.00;13.67;;;;;8.43;72.49;100632.00;4977775;28;45363;-47
2024/01/06 04:27:12;;;;;;;;;16.33;14.00;;;;;8.32;72.77;100610.84;4977768;28;45389;-46
2024/01/06 04:29:39;;;;;;;;;19.33;14.00;;;;;8.42;72.68;100628.47;4977913;28;45397;-45
2024/01/06 04:32:04;;;;;;;;;18.00;13.33;;;;;8.42;72.99;100636.44;4976737;28;46283;-48
2024/01/06 04:34:30;;;;;;;;;21.33;16.00;;;;;8.42;72.68;100630.28;4976297;28;45257;-46
2024/01/06 04:36:55;;;;;;;;;13.33;13.33;;;;;8.42;73.22;100635.59;4977825;28;45803;-46
2024/01/06 04:39:21;;;;;;;;;25.33;17.00;;;;;8.46;72.35;100642.31;4977420;28;45552;-45
2024/01/06 04:41:46;;;;;;;;;37.50;29.00;;;;;8.47;72.95;100644.00;4977423;28;46035;-47
2024/01/06 04:44:11;;;;;;;;;45.75;37.75;;;;;8.47;73.09;100644.00;4977055;28;45401;-47
2024/01/06 04:46:36;;;;;;;;;34.50;31.75;;;;;8.43;72.44;100635.47;4977646;28;45379;-47
2024/01/06 04:49:02;;;;;;;;;36.75;30.25;;;;;8.49;72.56;100645.53;4977859;28;45454;-44
2024/01/06 04:51:27;;;;;;;;;31.00;26.75;;;;;8.49;72.57;100650.81;4977187;28;46189;-47
2024/01/06 04:53:53;;;;;;;;;29.00;24.25;;;;;8.49;72.84;100644.69;4977045;28;45441;-49
2024/01/06 04:56:18;;;;;;;;;28.25;25.75;;;;;8.52;72.90;100651.53;4959898;28;45363;-48
2024/01/06 04:58:44;;;;;;;;;29.50;24.00;;;;;8.53;72.53;100650.56;4977445;28;45399;-47
2024/01/06 05:01:09;;;;;;;;;32.50;25.75;;;;;8.53;73.05;100654.03;4977203;28;46250;-48
2024/01/06 05:03:35;;;;;;;;;23.75;22.00;;;;;8.53;72.27;100655.88;4977204;28;45513;-47
2024/01/06 05:06:00;;;;;;;;;22.75;21.50;;;;;8.55;73.04;100657.38;4977645;28;45462;-47
2024/01/06 05:08:25;;;;;;;;;26.75;20.50;;;;;8.54;72.59;100657.53;4977495;28;45349;-48
2024/01/06 05:10:53;;;;;;;;;24.50;21.00;;;;;8.55;72.98;100657.38;4976953;28;46587;-48
2024/01/06 05:13:18;;;;;;;;;20.75;13.25;;;;;8.56;72.02;100664.38;4977057;28;45749;-49
2024/01/06 05:15:44;;;;;;;;;26.00;15.25;;;;;8.56;72.68;100669.69;4976875;28;45342;-50
2024/01/06 05:18:09;;;;;;;;;18.67;15.67;;;;;8.53;72.39;100658.50;4977382;28;45365;-48
2024/01/06 05:20:34;;;;;;;;;16.33;15.67;;;;;8.56;72.31;100663.56;4977116;28;49318;-48
2024/01/06 05:23:00;;;;;;;;;29.00;16.67;;;;;8.59;72.74;100673.88;4977034;28;45451;-46
2024/01/06 05:25:25;;;;;;;;;18.00;17.33;;;;;8.55;71.80;100673.28;4977229;28;45229;-46
2024/01/06 05:27:51;;;;;;;;;13.67;11.33;;;;;8.58;72.26;100669.53;4977219;28;45573;-52
2024/01/06 05:30:17;;;;;;;;;24.00;15.25;;;;;8.54;72.67;100662.84;4976663;28;46093;-47
2024/01/06 05:32:43;;;;;;;;;17.00;14.00;;;;;8.58;72.47;100666.91;4976748;28;45362;-49
2024/01/06 05:35:09;;;;;;;;;15.00;15.00;;;;;8.58;72.74;100662.44;4976798;28;45279;-49
2024/01/06 05:37:34;;;;;;;;;22.00;13.00;;;;;8.57;71.86;100665.22;4976844;28;45327;-49
2024/01/06 05:40:02;;;;;;;;;18.67;14.00;;;;;8.60;72.23;100664.97;4976451;28;45522;-49
2024/01/06 05:42:28;;;;;;;;;22.00;17.33;;;;;8.59;72.47;100668.56;4976616;28;45533;-50
2024/01/06 05:44:54;;;;;;;;;20.33;15.00;;;;;8.49;71.80;100669.38;4979642;28;45231;-47
2024/01/06 05:47:19;;;;;;;;;17.33;11.67;;;;;8.47;72.48;100679.28;4980623;28;45339;-46
2024/01/06 05:49:45;;;;;;;;;17.67;13.33;;;;;8.41;72.50;100677.16;4979936;28;46135;-50
2024/01/06 05:52:10;;;;;;;;;24.00;19.00;;;;;8.34;72.67;100675.97;4980136;28;45400;-47
2024/01/06 05:54:35;;;;;;;;;19.00;16.00;;;;;8.30;72.62;100679.03;4980140;28;45456;-47
2024/01/06 05:57:01;;;;;;;;;18.00;14.00;;;;;8.25;72.86;100685.56;4980374;28;45367;-47
2024/01/06 05:59:26;;;;;;;;;17.00;12.00;;;;;8.21;72.60;100691.28;4979630;28;48389;-45
2024/01/06 06:01:52;;;;;;;;;15.67;14.00;;;;;8.16;72.47;100694.31;4979896;28;45240;-47
2024/01/06 06:04:18;;;;;;;;;22.00;13.00;;;;;8.12;72.49;100703.50;4979864;28;45364;-48
2024/01/06 06:06:44;;;;;;;;;12.67;10.00;;;;;8.11;72.41;100711.59;4980163;28;45490;-47
2024/01/06 06:09:10;;;;;;;;;15.33;13.67;;;;;8.05;72.44;100702.38;4979462;28;46231;-49
2024/01/06 06:11:35;;;;;;;;;17.00;12.67;;;;;8.05;72.07;100718.28;4979688;28;45485;-45
2024/01/06 06:14:02;;;;;;;;;16.00;10.00;;;;;8.02;72.49;100720.34;4980034;28;45361;-48
2024/01/06 06:16:28;;;;;;;;;9.67;9.33;;;;;8.00;71.68;100725.75;4978869;28;45398;-50
2024/01/06 06:18:53;;;;;;;;;12.00;9.00;;;;;7.95;71.55;100720.00;4979351;28;46685;-45
2024/01/06 06:21:19;;;;;;;;;9.00;9.00;;;;;7.93;71.75;100714.84;4979736;28;45359;-45
2024/01/06 06:23:44;;;;;;;;;13.00;8.00;;;;;7.99;71.43;100726.72;4979711;28;45791;-46
2024/01/06 06:26:09;;;;;;;;;10.67;8.33;;;;;8.04;71.77;100736.94;4979699;28;45348;-47
2024/01/06 06:28:35;;;;;;;;;18.33;11.33;;;;;8.06;71.54;100743.78;4979539;28;45834;-46
2024/01/06 06:31:04;;;;;;;;;14.33;10.00;;;;;8.05;71.43;100731.53;4979411;28;45200;-53
2024/01/06 06:33:29;;;;;;;;;10.00;9.00;;;;;8.08;71.64;100747.13;4979741;28;45307;-47
2024/01/06 06:35:55;;;;;;;;;12.67;12.00;;;;;8.07;70.86;100741.97;4979774;28;45446;-49
2024/01/06 06:38:21;;;;;;;;;9.67;8.33;;;;;8.06;71.49;100741.13;4979276;28;45940;-49
2024/01/06 06:40:47;;;;;;;;;10.67;6.33;;;;;8.16;71.86;100755.28;4979122;28;45413;-48
2024/01/06 06:43:12;;;;;;;;;13.33;13.00;;;;;8.17;70.87;100750.81;4979345;28;45394;-48
2024/01/06 06:45:38;;;;;;;;;10.00;9.00;;;;;8.18;70.53;100758.66;4979436;28;45339;-49
2024/01/06 06:48:06;;;;;;;;;9.33;8.00;;;;;8.20;71.25;100763.81;4979177;28;46135;-51
2024/01/06 06:50:32;;;;;;;;;10.33;8.33;;;;;8.22;70.21;100764.53;4979168;28;45346;-49
2024/01/06 06:52:57;;;;;;;;;13.00;10.33;;;;;8.23;70.07;100776.81;4978995;28;45362;-48
2024/01/06 06:55:23;;;;;;;;;6.00;3.67;;;;;8.25;69.59;100772.19;4978498;28;45528;-52
2024/01/06 06:57:48;;;;;;;;;6.00;6.00;;;;;8.21;70.32;100776.91;4978968;28;46687;-45
2024/01/06 07:00:14;;;;;;;;;6.00;5.33;;;;;8.28;70.21;100781.72;4978951;28;45342;-50
2024/01/06 07:02:40;;;;;;;;;6.00;6.00;;;;;8.28;69.89;100781.72;4979243;28;45284;-47
2024/01/06 07:05:08;;;;;;;;;12.00;9.00;;;;;8.30;69.49;100782.41;4979224;28;45443;-48
2024/01/06 07:07:34;;;;;;;;;9.67;8.33;;;;;8.31;69.93;100787.59;4978859;28;45299;-49
2024/01/06 07:10:04;;;;;;;;;13.00;10.00;;;;;8.32;69.97;100791.91;4978643;28;45837;-48
2024/01/06 07:12:30;;;;;;;;;11.00;8.00;;;;;8.34;70.58;100794.41;4978934;28;45315;-50
2024/01/06 07:14:55;;;;;;;;;7.00;7.00;;;;;8.31;70.33;100803.50;4978897;28;45402;-49
2024/01/06 07:17:21;;;;;;;;;9.00;9.00;;;;;8.32;69.57;100794.56;4977321;28;46001;-48
2024/01/06 07:19:46;;;;;;;;;11.00;7.00;;;;;8.34;69.79;100812.97;4978508;28;46250;-47
2024/01/06 07:22:11;;;;;;;;;4.67;4.67;;;;;8.33;70.45;100806.84;4978719;28;45381;-46
2024/01/06 07:24:36;;;;;;;;;10.00;5.67;;;;;8.33;70.29;100806.84;4978831;28;45446;-48
2024/01/06 07:27:03;;;;;;;;;9.00;6.00;;;;;8.35;69.15;100815.50;4978396;28;50173;-47
2024/01/06 07:29:28;;;;;;;;;5.00;5.00;;;;;8.36;69.77;100817.19;4978601;28;45350;-50
2024/01/06 07:31:54;;;;;;;;;9.00;5.67;;;;;8.37;69.39;100826.00;4978453;28;45423;-47
2024/01/06 07:34:19;;;;;;;;;11.00;7.00;;;;;8.33;69.33;100821.91;4978704;28;45405;-47
2024/01/06 07:36:44;;;;;;;;;6.33;6.00;;;;;8.35;69.82;100830.59;4978438;28;46082;-47
2024/01/06 07:39:10;;;;;;;;;8.33;6.00;;;;;8.37;68.99;100844.56;4978113;28;45465;-46
2024/01/06 07:41:35;;;;;;;;;8.33;6.00;;;;;8.37;69.55;100844.56;4978328;28;45280;-48
2024/01/06 07:44:02;;;;;;;;;7.67;6.67;;;;;8.38;70.06;100847.06;4978715;28;45272;-46
2024/01/06 07:46:28;;;;;;;;;18.67;11.33;;;;;8.37;69.75;100853.34;4978117;28;46064;-48
2024/01/06 07:48:53;;;;;;;;;9.00;6.00;;;;;8.36;69.81;100851.66;4978272;28;45451;-45
2024/01/06 07:51:18;;;;;;;;;11.67;9.00;;;;;8.33;69.57;100845.75;4978505;28;45353;-46
2024/01/06 07:53:44;;;;;;;;;14.33;9.00;;;;;8.39;69.90;100850.59;4978652;28;45481;-47
2024/01/06 07:56:09;;;;;;;;;7.67;6.00;;;;;8.38;70.13;100849.72;4977981;28;45358;-48
2024/01/06 07:58:35;;;;;;;;;11.67;9.00;;;;;8.38;70.30;100849.72;4978243;28;45413;-48
2024/01/06 08:01:01;;;;;;;;;7.67;5.33;;;;;8.40;70.20;100863.69;4978167;28;45314;-46
2024/01/06 08:03:26;;;;;;;;;8.00;5.00;;;;;8.41;69.51;100860.06;4978427;28;45428;-45
2024/01/06 08:05:52;;;;;;;;;6.33;6.33;;;;;8.43;69.73;100867.91;4977678;28;45483;-47
2024/01/06 08:08:18;;;;;;;;;9.00;6.00;;;;;8.43;69.75;100865.28;4978005;28;45364;-48
2024/01/06 08:10:44;;;;;;;;;9.00;6.00;;;;;8.44;68.99;100877.53;4977991;28;45330;-45
2024/01/06 08:13:09;;;;;;;;;5.67;5.00;;;;;8.32;68.62;100863.47;4978296;28;45267;-47
2024/01/06 08:15:34;;;;;;;;;11.33;7.33;;;;;8.45;69.10;100881.88;4977877;28;46452;-46
2024/01/06 08:18:00;;;;;;;;;9.67;5.67;;;;;8.39;68.46;100875.28;4977807;28;45345;-46
2024/01/06 08:20:25;;;;;;;;;8.00;5.00;;;;;8.43;68.11;100889.13;4977999;28;45688;-47
2024/01/06 08:22:50;;;;;;;;;9.67;9.33;;;;;8.43;68.57;100895.25;4978104;28;45301;-49
2024/01/06 08:25:17;;;;;;;;;9.67;6.00;;;;;8.41;68.72;100889.22;4977221;28;46051;-47
2024/01/06 08:27:43;;;;;;;;;7.00;5.00;;;;;8.39;68.25;100896.50;4977548;28;45274;-50
2024/01/06 08:30:08;;;;;;;;;10.33;8.67;;;;;8.39;69.30;100898.31;4977836;28;45319;-48
2024/01/06 08:32:34;;;;;;;;;11.00;7.00;;;;;8.39;67.98;100899.13;4977961;28;45145;-46
2024/01/06 08:34:59;;;;;;;;;9.00;8.33;;;;;8.37;68.09;100902.88;4977560;28;46238;-47
2024/01/06 08:37:24;;;;;;;;;9.33;6.67;;;;;8.42;68.80;100905.97;4977656;28;45437;-46
2024/01/06 08:39:50;;;;;;;;;6.33;6.00;;;;;8.47;69.11;100907.28;4977485;28;45315;-47
2024/01/06 08:42:15;;;;;;;;;10.67;9.00;;;;;8.52;69.99;100909.56;4977982;28;45456;-45
2024/01/06 08:44:40;;;;;;;;;6.33;6.00;;;;;8.59;68.17;100908.03;4977481;28;46303;-46
2024/01/06 08:47:06;;;;;;;;;10.33;9.33;;;;;8.63;67.87;100914.78;4977946;28;45735;-47
2024/01/06 08:49:31;;;;;;;;;7.67;6.67;;;;;8.67;67.60;100910.88;4977630;28;45431;-49
2024/01/06 08:51:57;;;;;;;;;11.33;7.67;;;;;8.67;67.77;100916.19;4977702;28;45283;-48
2024/01/06 08:54:23;;;;;;;;;12.33;11.00;;;;;8.70;67.68;100923.06;4977128;28;46102;-46
2024/01/06 08:56:49;;;;;;;;;9.00;9.00;;;;;8.70;67.58;100915.09;4976993;28;45416;-47
2024/01/06 08:59:15;;;;;;;;;10.67;9.33;;;;;8.77;66.79;100920.75;4977309;28;45386;-46
2024/01/06 09:01:40;;;;;;;;;11.67;10.00;;;;;8.79;66.79;100924.09;4977258;28;45248;-49
2024/01/06 09:04:06;;;;;;;;;10.33;6.00;;;;;8.80;66.59;100923.09;4976991;28;51064;-48
2024/01/06 09:06:32;;;;;;;;;6.00;3.00;;;;;8.83;64.99;100917.56;4977386;28;45300;-47
2024/01/06 09:08:57;;;;;;;;;10.00;7.00;;;;;8.81;64.93;100916.84;4977174;28;45413;-48
2024/01/06 09:11:22;;;;;;;;;10.00;6.33;;;;;8.90;65.70;100931.97;4977133;28;45529;-48
2024/01/06 09:13:48;;;;;;;;;3.33;3.33;;;;;8.92;64.87;100941.47;4977022;28;46107;-49
2024/01/06 09:16:13;;;;;;;;;6.33;6.00;;;;;8.84;65.19;100921.88;4977049;28;45353;-47
2024/01/06 09:18:39;;;;;;;;;9.33;5.67;;;;;8.97;65.62;100943.72;4976363;28;45446;-47
2024/01/06 09:21:05;;;;;;;;;6.00;5.00;;;;;9.01;65.06;100939.84;4977239;28;45454;-49
2024/01/06 09:23:31;;;;;;;;;11.00;5.67;;;;;9.02;65.03;100946.84;4976830;28;45283;-47
2024/01/06 09:25:57;;;;;;;;;7.00;6.00;;;;;9.05;64.77;100938.59;4976630;28;45418;-48
2024/01/06 09:28:23;;;;;;;;;3.00;3.00;;;;;9.20;65.01;100945.25;4976986;28;45398;-46
2024/01/06 09:30:48;;;;;;;;;10.00;5.67;;;;;9.25;64.47;100943.03;4976887;28;45371;-49
2024/01/06 09:33:15;;;;;;;;;6.00;4.33;;;;;9.33;64.32;100946.84;4976671;28;46369;-46
2024/01/06 09:35:41;;;;;;;;;3.00;3.00;;;;;9.38;64.31;100958.75;4976645;28;45310;-48
2024/01/06 09:38:07;;;;;;;;;5.33;2.67;;;;;9.41;63.90;100952.34;4976563;28;45393;-49
2024/01/06 09:40:34;;;;;;;;;3.00;3.00;;;;;9.40;63.83;100954.16;4976741;28;45429;-48
2024/01/06 09:42:59;;;;;;;;;8.33;5.00;;;;;9.29;63.33;100937.47;4976513;28;46085;-46
2024/01/06 09:45:25;;;;;;;;;3.00;2.67;;;;;9.38;63.01;100961.38;4976532;28;45323;-49
2024/01/06 09:47:51;;;;;;;;;10.00;5.00;;;;;9.34;62.83;100967.94;4976428;28;45499;-49
2024/01/06 09:50:21;;;;;;;;;3.00;2.67;;;;;9.28;63.01;100963.19;4976610;28;45359;-47
2024/01/06 09:52:55;;;;;;;;;10.00;5.00;;;;;9.30;62.72;100971.00;4976365;28;47044;-46
2024/01/06 09:55:28;;;;;;;;;5.00;3.00;;;;;9.33;62.13;100978.72;4976166;28;45331;-47
2024/01/06 09:57:53;;;;;;;;;3.33;3.33;;;;;9.36;62.60;100967.84;4976407;28;45263;-46
2024/01/06 10:00:20;;;;;;;;;3.00;3.00;;;;;9.39;62.15;100979.00;4976385;28;45397;-46
2024/01/06 10:02:47;;;;;;;;;6.00;3.00;;;;;9.43;62.30;100983.06;4976032;28;47366;-45
2024/01/06 10:05:13;;;;;;;;;5.67;4.00;;;;;9.41;61.42;100958.47;4975997;28;45308;-45
2024/01/06 10:07:41;;;;;;;;;2.00;2.00;;;;;9.68;61.73;100983.59;4976304;28;45432;-48
2024/01/06 10:10:07;;;;;;;;;2.00;2.00;;;;;9.82;60.91;100979.69;4976189;28;45472;-49
2024/01/06 10:12:32;;;;;;;;;0.67;0.67;;;;;9.87;60.81;100983.66;4976584;28;45428;-48
2024/01/06 10:14:58;;;;;;;;;3.33;2.00;;;;;9.92;60.88;100981.41;4975667;28;45227;-48
2024/01/06 10:17:23;;;;;;;;;2.33;2.33;;;;;9.91;60.63;100982.41;4976480;28;45327;-46
2024/01/06 10:19:49;;;;;;;;;6.33;4.33;;;;;9.92;60.85;100994.69;4976506;28;45340;-54
2024/01/06 10:22:15;;;;;;;;;1.67;1.67;;;;;9.89;60.90;100989.66;4975886;28;46106;-49
2024/01/06 10:24:40;;;;;;;;;5.33;1.00;;;;;9.94;60.58;100998.09;4976274;28;45319;-46
2024/01/06 10:27:08;;;;;;;;;5.33;3.00;;;;;9.84;60.63;100981.25;4976349;28;45362;-49
2024/01/06 10:29:34;;;;;;;;;5.33;2.33;;;;;9.95;60.71;100986.47;4976547;28;45391;-48
2024/01/06 10:31:59;;;;;;;;;3.00;3.00;;;;;9.97;60.94;100988.97;4979231;28;45658;-47
2024/01/06 10:34:25;;;;;;;;;7.00;2.67;;;;;9.97;60.62;100986.31;4979494;28;45369;-47
2024/01/06 10:36:54;;;;;;;;;2.33;2.33;;;;;9.95;60.74;100998.91;4979763;28;45402;-47
2024/01/06 10:39:20;;;;;;;;;2.00;2.00;;;;;9.88;60.51;101003.94;4979476;28;45465;-43
2024/01/06 10:41:46;;;;;;;;;3.67;2.67;;;;;9.89;60.64;100991.47;4979119;28;46147;-48
2024/01/06 10:44:12;;;;;;;;;3.00;3.00;;;;;9.88;60.98;100995.94;4979142;28;45369;-47
2024/01/06 10:46:39;;;;;;;;;6.00;2.67;;;;;9.84;60.85;100983.91;4979352;28;45399;-47
2024/01/06 10:49:10;;;;;;;;;6.33;2.33;;;;;9.89;60.99;100994.13;4979592;28;45548;-48
2024/01/06 10:51:37;;;;;;;;;1.33;1.33;;;;;9.89;60.13;100992.31;4978708;28;46331;-48
2024/01/06 10:54:02;;;;;;;;;2.33;1.00;;;;;9.88;60.33;100995.13;4979172;28;45375;-47
2024/01/06 10:56:29;;;;;;;;;2.00;2.00;;;;;9.91;60.46;100993.03;4978932;28;45382;-50
2024/01/06 10:58:56;;;;;;;;;1.00;1.00;;;;;9.94;59.69;101002.53;4979081;28;45454;-50
2024/01/06 11:01:24;;;;;;;;;2.00;2.00;;;;;9.94;59.70;101005.19;4978803;28;46298;-50
2024/01/06 11:03:50;;;;;;;;;1.33;1.33;;;;;9.95;59.79;100998.91;4978750;28;45323;-47
2024/01/06 11:06:17;;;;;;;;;5.33;2.00;;;;;9.99;60.04;101000.31;4978659;28;45410;-48
2024/01/06 11:08:57;;;;;;;;;2.33;2.00;;;;;9.87;59.98;100970.38;4978849;28;45252;-49
2024/01/06 11:11:23;;;;;;;;;3.00;2.00;;;;;9.99;60.59;100992.34;4978361;28;47096;-48
2024/01/06 11:13:49;;;;;;;;;3.33;3.00;;;;;10.02;59.86;100991.22;4979033;28;45385;-48
2024/01/06 11:16:36;;;;;;;;;2.33;2.33;;;;;10.02;59.83;100984.09;4978798;28;45362;-45